Weather at Weeze Airport

Public forecast

Using degrees Celsius for public forecast. Weather courtesy of forecast.io.

Current aviation weather report (METAR) for Weeze Airport

2024/07/18 17:20 (retrieved 12 minutes ago)

EDLV 181720Z 05005KT CAVOK 27/14 Q1020

Aviation forecast (TAF) for Weeze Airport

2024/07/18 12:27 (retrieved 5 hours ago)

TAF EDLV 181100Z 1812/1912 VRB03KT CAVOK